createdAt,value
2022-08-25T00:02:13.234Z,18.70
2022-08-25T00:04:40.293Z,18.60
2022-08-25T00:07:07.756Z,18.60
2022-08-25T00:09:35.108Z,18.60
2022-08-25T00:12:03.731Z,18.60
2022-08-25T00:14:34.250Z,18.50
2022-08-25T00:17:01.670Z,18.50
2022-08-25T00:19:32.066Z,18.50
2022-08-25T00:21:59.475Z,18.40
2022-08-25T00:24:26.202Z,18.40
2022-08-25T00:26:56.318Z,18.30
2022-08-25T00:29:28.313Z,18.40
2022-08-25T00:31:55.929Z,18.30
2022-08-25T00:34:26.731Z,18.30
2022-08-25T00:36:53.811Z,18.30
2022-08-25T00:39:22.136Z,18.30
2022-08-25T00:41:50.700Z,18.30
2022-08-25T00:44:18.707Z,18.20
2022-08-25T00:46:49.516Z,18.20
2022-08-25T00:49:39.980Z,18.10
2022-08-25T00:52:12.270Z,18.10
2022-08-25T00:54:57.923Z,18.10
2022-08-25T00:57:34.223Z,18.10
2022-08-25T01:00:06.546Z,18.10
2022-08-25T01:02:33.305Z,18.00
2022-08-25T01:04:59.884Z,17.90
2022-08-25T01:07:26.497Z,18.00
2022-08-25T01:09:53.852Z,17.90
2022-08-25T01:12:21.555Z,18.00
2022-08-25T01:14:49.911Z,17.90
2022-08-25T01:17:16.985Z,17.90
2022-08-25T01:19:43.691Z,17.90
2022-08-25T01:22:11.930Z,17.90
2022-08-25T01:24:47.193Z,17.80
2022-08-25T01:27:13.847Z,17.80
2022-08-25T01:29:40.564Z,17.80
2022-08-25T01:32:14.096Z,17.70
2022-08-25T01:34:42.969Z,17.70
2022-08-25T01:37:13.462Z,17.60
2022-08-25T01:39:41.628Z,17.70
2022-08-25T01:42:13.196Z,17.70
2022-08-25T01:44:43.636Z,17.60
2022-08-25T01:47:11.119Z,17.60
2022-08-25T01:49:37.990Z,17.70
2022-08-25T01:52:24.622Z,17.60
2022-08-25T01:54:51.190Z,17.60
2022-08-25T01:57:17.845Z,17.60
2022-08-25T01:59:44.982Z,17.60
2022-08-25T02:02:11.825Z,17.60
2022-08-25T02:04:39.418Z,17.60
2022-08-25T02:07:09.198Z,17.60
2022-08-25T02:09:37.028Z,17.70
2022-08-25T02:12:04.170Z,17.50
2022-08-25T02:14:30.858Z,17.50
2022-08-25T02:16:57.510Z,17.50
2022-08-25T02:19:25.836Z,17.50
2022-08-25T02:21:52.760Z,17.50
2022-08-25T02:24:19.590Z,17.50
2022-08-25T02:26:46.169Z,17.40
2022-08-25T02:29:13.383Z,17.40
2022-08-25T02:31:40.139Z,17.30
2022-08-25T02:34:08.644Z,17.50
2022-08-25T02:36:35.561Z,17.40
2022-08-25T02:39:02.778Z,17.30
2022-08-25T02:41:31.781Z,17.40
2022-08-25T02:44:03.321Z,17.40
2022-08-25T02:46:30.911Z,17.40
2022-08-25T02:48:57.770Z,17.40
2022-08-25T02:51:25.622Z,17.30
2022-08-25T02:53:52.196Z,17.30
2022-08-25T02:56:19.735Z,17.20
2022-08-25T02:58:47.318Z,17.30
2022-08-25T03:01:14.969Z,17.20
2022-08-25T03:03:44.287Z,17.30
2022-08-25T03:06:13.074Z,17.30
2022-08-25T03:08:40.487Z,17.30
2022-08-25T03:11:07.045Z,17.20
2022-08-25T03:13:34.019Z,17.30
2022-08-25T03:16:02.917Z,17.30
2022-08-25T03:18:30.745Z,17.20
2022-08-25T03:20:57.642Z,17.30
2022-08-25T03:23:24.291Z,17.20
2022-08-25T03:26:09.362Z,17.20
2022-08-25T03:28:36.399Z,17.10
2022-08-25T03:31:03.224Z,17.20
2022-08-25T03:33:30.901Z,17.00
2022-08-25T03:35:58.106Z,17.00
2022-08-25T03:38:25.732Z,16.90
2022-08-25T03:40:53.124Z,16.90
2022-08-25T03:43:20.282Z,16.90
2022-08-25T03:45:47.829Z,16.80
2022-08-25T03:48:16.049Z,17.00
2022-08-25T03:50:51.359Z,16.90
2022-08-25T03:53:19.198Z,16.80
2022-08-25T03:55:45.834Z,16.80
2022-08-25T03:58:12.567Z,16.70
2022-08-25T04:00:39.341Z,16.70
2022-08-25T04:03:05.976Z,16.70
2022-08-25T04:05:32.922Z,16.70
2022-08-25T04:08:01.631Z,16.70
2022-08-25T04:10:29.303Z,16.60
2022-08-25T04:12:56.261Z,16.80
2022-08-25T04:15:23.911Z,16.70
2022-08-25T04:17:55.195Z,16.60
2022-08-25T04:20:22.054Z,16.60
2022-08-25T04:22:48.616Z,16.70
2022-08-25T04:25:15.266Z,16.70
2022-08-25T04:27:41.971Z,16.80
2022-08-25T04:30:09.827Z,16.80
2022-08-25T04:32:36.983Z,16.90
2022-08-25T04:35:05.400Z,17.00
2022-08-25T04:37:33.272Z,17.00
2022-08-25T04:40:00.144Z,17.10
2022-08-25T04:42:27.230Z,17.20
2022-08-25T04:44:54.426Z,17.20
2022-08-25T04:47:21.255Z,17.20
2022-08-25T04:49:47.812Z,17.20
2022-08-25T04:52:14.827Z,17.30
2022-08-25T04:54:42.802Z,17.30
2022-08-25T04:57:09.863Z,17.40
2022-08-25T04:59:36.502Z,17.30
2022-08-25T05:02:05.027Z,17.40
2022-08-25T05:04:36.107Z,17.40
2022-08-25T05:07:03.618Z,17.40
2022-08-25T05:09:32.120Z,17.40
2022-08-25T05:12:00.710Z,17.50
2022-08-25T05:14:27.309Z,17.50
2022-08-25T05:16:55.542Z,17.50
2022-08-25T05:19:23.790Z,17.50
2022-08-25T05:21:51.065Z,17.50
2022-08-25T05:24:18.343Z,17.50
2022-08-25T05:26:45.006Z,17.50
2022-08-25T05:29:14.296Z,17.50
2022-08-25T05:31:44.887Z,17.60
2022-08-25T05:34:13.763Z,17.60
2022-08-25T05:36:43.350Z,17.60
2022-08-25T05:39:10.862Z,17.70
2022-08-25T05:41:38.241Z,17.70
2022-08-25T05:44:04.906Z,17.80
2022-08-25T05:46:31.614Z,17.70
2022-08-25T05:48:58.947Z,17.80
2022-08-25T05:51:26.206Z,17.70
2022-08-25T05:53:52.922Z,17.80
2022-08-25T05:56:20.066Z,17.80
2022-08-25T05:58:47.027Z,17.90
2022-08-25T06:01:43.405Z,17.90
2022-08-25T06:04:11.941Z,18.00
2022-08-25T06:06:39.864Z,18.00
2022-08-25T06:09:08.612Z,18.10
2022-08-25T06:11:37.184Z,18.10
2022-08-25T06:14:04.566Z,18.20
2022-08-25T06:16:31.512Z,18.30
2022-08-25T06:18:58.223Z,18.30
2022-08-25T06:21:25.379Z,18.40
2022-08-25T06:23:52.783Z,18.40
2022-08-25T06:26:20.798Z,18.60
2022-08-25T06:28:49.274Z,18.60
2022-08-25T06:31:15.909Z,18.70
2022-08-25T06:33:43.926Z,18.70
2022-08-25T06:36:10.500Z,18.70
2022-08-25T06:38:37.214Z,18.70
2022-08-25T06:41:05.513Z,18.80
2022-08-25T06:43:33.152Z,18.90
2022-08-25T06:46:15.686Z,18.90
2022-08-25T06:48:42.636Z,19.00
2022-08-25T06:51:14.248Z,19.10
2022-08-25T06:53:41.542Z,19.10
2022-08-25T06:56:08.977Z,19.10
2022-08-25T06:58:35.804Z,19.10
2022-08-25T07:01:19.880Z,19.20
2022-08-25T07:03:47.519Z,19.20
2022-08-25T07:06:14.591Z,19.20
2022-08-25T07:08:43.174Z,19.30
2022-08-25T07:11:16.445Z,19.30
2022-08-25T07:13:44.961Z,19.20
2022-08-25T07:16:11.894Z,19.30
2022-08-25T07:18:38.866Z,19.30
2022-08-25T07:21:05.970Z,19.40
2022-08-25T07:23:36.007Z,19.40
2022-08-25T07:26:35.961Z,19.40
2022-08-25T07:29:04.045Z,19.40
2022-08-25T07:31:32.293Z,19.30
2022-08-25T07:34:17.394Z,19.30
2022-08-25T07:36:44.457Z,19.40
2022-08-25T07:39:11.294Z,19.50
2022-08-25T07:41:40.238Z,19.40
2022-08-25T07:44:08.143Z,19.50
2022-08-25T07:46:37.782Z,19.60
2022-08-25T07:49:05.255Z,19.70
2022-08-25T07:51:44.195Z,19.80
2022-08-25T07:54:34.091Z,19.90
2022-08-25T07:57:01.734Z,19.90
2022-08-25T07:59:28.299Z,19.90
2022-08-25T08:01:54.934Z,20.00
2022-08-25T08:04:22.219Z,20.20
2022-08-25T08:06:48.770Z,20.10
2022-08-25T08:09:16.142Z,20.00
2022-08-25T08:11:53.664Z,20.20
2022-08-25T08:14:20.676Z,20.20
2022-08-25T08:16:47.400Z,20.30
2022-08-25T08:19:14.044Z,20.20
2022-08-25T08:21:40.913Z,20.20
2022-08-25T08:24:24.783Z,20.50
2022-08-25T08:26:59.073Z,20.50
2022-08-25T08:29:26.250Z,20.60
2022-08-25T08:31:53.224Z,20.70
2022-08-25T08:34:19.864Z,20.90
2022-08-25T08:36:51.989Z,21.00
2022-08-25T08:39:18.580Z,21.10
2022-08-25T08:42:16.970Z,21.20
2022-08-25T08:44:46.385Z,21.30
2022-08-25T08:47:40.543Z,21.40
2022-08-25T08:50:33.071Z,21.50
2022-08-25T08:53:41.755Z,21.60
2022-08-25T08:56:16.249Z,21.80
2022-08-25T08:58:51.385Z,21.90
2022-08-25T09:01:32.137Z,22.00
2022-08-25T09:04:09.400Z,22.30
2022-08-25T09:06:42.899Z,22.60
2022-08-25T09:09:14.310Z,22.70
2022-08-25T09:11:43.783Z,23.00
2022-08-25T09:14:45.818Z,23.10
2022-08-25T09:17:54.386Z,23.20
2022-08-25T09:20:54.804Z,23.20
2022-08-25T09:23:55.521Z,23.30
2022-08-25T09:26:36.024Z,23.20
2022-08-25T09:29:16.269Z,23.10
2022-08-25T09:31:44.825Z,23.00
2022-08-25T09:34:18.799Z,22.90
2022-08-25T09:36:48.408Z,22.80
2022-08-25T09:39:15.390Z,22.70
2022-08-25T09:41:51.280Z,22.70
2022-08-25T09:44:26.002Z,22.70
2022-08-25T09:47:23.983Z,22.70
2022-08-25T09:50:00.575Z,22.70
2022-08-25T09:52:38.601Z,22.70
2022-08-25T09:55:08.031Z,22.80
2022-08-25T09:57:47.914Z,22.90
2022-08-25T10:00:22.694Z,23.10
2022-08-25T10:03:12.287Z,23.10
2022-08-25T10:06:01.279Z,23.20
2022-08-25T10:08:45.084Z,23.30
2022-08-25T10:11:15.399Z,23.50
2022-08-25T10:13:53.010Z,23.60
2022-08-25T10:16:32.068Z,23.70
2022-08-25T10:19:08.729Z,23.80
2022-08-25T10:21:38.228Z,23.90
2022-08-25T10:24:06.518Z,24.00
2022-08-25T10:27:01.228Z,24.10
2022-08-25T10:29:49.362Z,24.30
2022-08-25T10:32:23.147Z,24.40
2022-08-25T10:34:56.143Z,24.60
2022-08-25T10:37:45.885Z,24.60
2022-08-25T10:40:29.781Z,24.70
2022-08-25T10:43:14.783Z,24.90
2022-08-25T10:46:00.213Z,25.10
2022-08-25T10:48:48.582Z,25.20
2022-08-25T10:51:32.676Z,25.40
2022-08-25T10:54:11.750Z,25.60
2022-08-25T10:56:43.015Z,25.60
2022-08-25T10:59:46.819Z,25.70
2022-08-25T11:02:51.243Z,25.70
2022-08-25T11:05:24.579Z,25.70
2022-08-25T11:07:57.022Z,25.70
2022-08-25T11:10:37.664Z,25.80
2022-08-25T11:13:11.390Z,25.80
2022-08-25T11:16:13.329Z,26.00
2022-08-25T11:18:35.862Z,26.20
2022-08-25T11:21:11.351Z,26.40
2022-08-25T11:23:44.486Z,26.40
2022-08-25T11:26:14.519Z,26.30
2022-08-25T11:29:12.748Z,26.10
2022-08-25T11:31:43.576Z,26.10
2022-08-25T11:34:15.237Z,26.00
2022-08-25T11:37:19.564Z,26.00
2022-08-25T11:40:17.194Z,26.00
2022-08-25T11:43:10.113Z,26.00
2022-08-25T11:45:55.347Z,26.00
2022-08-25T11:48:37.335Z,26.00
2022-08-25T11:51:10.366Z,26.10
2022-08-25T11:53:41.760Z,26.20
2022-08-25T11:56:31.663Z,26.40
2022-08-25T11:58:59.392Z,26.50
2022-08-25T12:01:32.557Z,26.60
2022-08-25T12:04:33.639Z,26.80
2022-08-25T12:07:07.031Z,27.00
2022-08-25T12:09:54.857Z,27.00
2022-08-25T12:12:29.037Z,27.10
2022-08-25T12:14:55.639Z,27.10
2022-08-25T12:17:25.872Z,27.30
2022-08-25T12:19:55.877Z,27.30
2022-08-25T12:22:22.384Z,27.50
2022-08-25T12:24:53.656Z,27.60
2022-08-25T12:27:33.369Z,27.60
2022-08-25T12:30:26.332Z,27.60
2022-08-25T12:33:08.256Z,27.60
2022-08-25T12:35:49.044Z,27.70
2022-08-25T12:38:26.218Z,27.80
2022-08-25T12:41:11.847Z,27.70
2022-08-25T12:43:42.354Z,27.60
2022-08-25T12:46:25.760Z,27.50
2022-08-25T12:49:29.962Z,27.30
2022-08-25T12:52:02.043Z,27.10
2022-08-25T12:54:49.882Z,26.90
2022-08-25T12:57:29.570Z,27.00
2022-08-25T12:59:59.223Z,26.90
2022-08-25T13:02:52.159Z,27.00
2022-08-25T13:05:47.894Z,27.00
2022-08-25T13:08:48.069Z,27.00
2022-08-25T13:11:21.355Z,27.00
2022-08-25T13:13:56.984Z,27.10
2022-08-25T13:16:29.881Z,27.00
2022-08-25T13:18:59.356Z,26.90
2022-08-25T13:21:37.406Z,26.80
2022-08-25T13:24:09.403Z,26.70
2022-08-25T13:26:48.175Z,26.70
2022-08-25T13:29:20.424Z,26.60
2022-08-25T13:31:51.806Z,26.70
2022-08-25T13:34:23.514Z,26.50
2022-08-25T13:37:29.951Z,26.50
2022-08-25T13:40:18.974Z,26.60
2022-08-25T13:42:55.577Z,26.50
2022-08-25T13:45:25.416Z,26.50
2022-08-25T13:47:56.225Z,26.70
2022-08-25T13:50:36.928Z,26.70
2022-08-25T13:53:13.773Z,26.70
2022-08-25T13:55:51.424Z,26.80
2022-08-25T13:58:39.190Z,26.80
2022-08-25T14:01:48.573Z,26.80
2022-08-25T14:04:50.503Z,26.90
2022-08-25T14:07:21.368Z,26.90
2022-08-25T14:09:51.749Z,26.70
2022-08-25T14:12:41.467Z,26.60
2022-08-25T14:15:13.641Z,26.50
2022-08-25T14:17:47.986Z,26.50
2022-08-25T14:20:19.142Z,26.50
2022-08-25T14:22:45.722Z,26.60
2022-08-25T14:25:12.444Z,26.50
2022-08-25T14:28:03.734Z,26.60
2022-08-25T14:30:33.388Z,26.50
2022-08-25T14:33:01.823Z,26.50
2022-08-25T14:35:29.470Z,26.50
2022-08-25T14:37:58.055Z,26.50
2022-08-25T14:40:24.732Z,26.50
2022-08-25T14:42:51.473Z,26.70
2022-08-25T14:45:19.079Z,26.70
2022-08-25T14:47:50.028Z,26.70
2022-08-25T14:50:20.174Z,26.70
2022-08-25T14:52:48.206Z,26.70
2022-08-25T14:55:31.280Z,26.70
2022-08-25T14:57:59.429Z,26.70
2022-08-25T15:00:26.136Z,26.80
2022-08-25T15:02:53.008Z,26.90
2022-08-25T15:05:25.657Z,27.00
2022-08-25T15:08:12.232Z,27.00
2022-08-25T15:10:40.133Z,27.00
2022-08-25T15:13:07.111Z,27.10
2022-08-25T15:15:38.020Z,27.20
2022-08-25T15:18:05.479Z,27.00
2022-08-25T15:20:32.850Z,27.00
2022-08-25T15:22:59.869Z,27.00
2022-08-25T15:25:26.856Z,27.00
2022-08-25T15:27:54.242Z,27.00
2022-08-25T15:30:21.370Z,26.90
2022-08-25T15:32:57.618Z,27.00
2022-08-25T15:35:27.697Z,27.10
2022-08-25T15:37:56.016Z,27.00
2022-08-25T15:40:23.021Z,26.90
2022-08-25T15:42:49.642Z,27.00
2022-08-25T15:45:16.360Z,26.90
2022-08-25T15:47:44.726Z,26.90
2022-08-25T15:50:15.599Z,26.80
2022-08-25T15:52:46.535Z,26.70
2022-08-25T15:55:15.063Z,26.70
2022-08-25T15:57:42.303Z,26.60
2022-08-25T16:00:11.819Z,26.60
2022-08-25T16:02:40.516Z,26.60
2022-08-25T16:05:09.098Z,26.50
2022-08-25T16:07:35.750Z,26.60
2022-08-25T16:10:04.853Z,26.60
2022-08-25T16:12:31.636Z,26.70
2022-08-25T16:14:58.378Z,26.60
2022-08-25T16:17:25.172Z,26.80
2022-08-25T16:19:51.725Z,26.60
2022-08-25T16:22:18.255Z,26.70
2022-08-25T16:24:45.122Z,26.70
2022-08-25T16:27:13.084Z,26.70
2022-08-25T16:29:41.982Z,26.60
2022-08-25T16:32:10.028Z,26.60
2022-08-25T16:34:37.398Z,26.60
2022-08-25T16:37:06.165Z,26.50
2022-08-25T16:39:33.085Z,26.50
2022-08-25T16:41:59.681Z,26.40
2022-08-25T16:44:26.232Z,26.30
2022-08-25T16:46:56.469Z,26.30
2022-08-25T16:49:24.174Z,26.20
2022-08-25T16:51:56.677Z,26.10
2022-08-25T16:54:42.419Z,26.10
2022-08-25T16:57:08.980Z,26.10
2022-08-25T16:59:35.671Z,26.10
2022-08-25T17:02:02.443Z,26.00
2022-08-25T17:04:32.222Z,26.10
2022-08-25T17:06:59.622Z,26.10
2022-08-25T17:09:26.213Z,26.00
2022-08-25T17:11:56.545Z,26.00
2022-08-25T17:14:23.662Z,26.10
2022-08-25T17:16:54.396Z,26.00
2022-08-25T17:19:21.546Z,26.00
2022-08-25T17:21:50.416Z,26.00
2022-08-25T17:24:17.660Z,26.00
2022-08-25T17:26:47.092Z,26.00
2022-08-25T17:29:13.669Z,25.90
2022-08-25T17:31:40.550Z,26.00
2022-08-25T17:34:12.993Z,25.90
2022-08-25T17:36:43.708Z,25.90
2022-08-25T17:39:12.020Z,25.90
2022-08-25T17:41:39.623Z,25.80
2022-08-25T17:44:07.643Z,25.70
2022-08-25T17:46:34.873Z,25.70
2022-08-25T17:49:01.535Z,25.70
2022-08-25T17:51:31.768Z,25.70
2022-08-25T17:53:58.510Z,25.60
2022-08-25T17:56:27.288Z,25.60
2022-08-25T17:58:57.894Z,25.60
2022-08-25T18:01:30.262Z,25.40
2022-08-25T18:03:58.855Z,25.30
2022-08-25T18:06:27.002Z,25.30
2022-08-25T18:08:56.384Z,25.30
2022-08-25T18:11:25.967Z,25.10
2022-08-25T18:13:54.150Z,25.10
2022-08-25T18:16:21.211Z,25.10
2022-08-25T18:18:48.282Z,25.00
2022-08-25T18:21:17.879Z,25.00
2022-08-25T18:23:45.762Z,24.90
2022-08-25T18:26:14.380Z,24.70
2022-08-25T18:28:43.877Z,24.70
2022-08-25T18:31:12.069Z,24.70
2022-08-25T18:33:41.975Z,24.60
2022-08-25T18:36:09.532Z,24.60
2022-08-25T18:38:57.962Z,24.60
2022-08-25T18:41:25.365Z,24.40
2022-08-25T18:43:52.794Z,24.40
2022-08-25T18:46:19.490Z,24.30
2022-08-25T18:48:49.720Z,25.00
2022-08-25T18:51:23.092Z,24.00
2022-08-25T18:53:54.699Z,23.80
2022-08-25T18:56:27.343Z,23.80
2022-08-25T18:58:53.900Z,23.70
2022-08-25T19:01:20.807Z,23.50
2022-08-25T19:03:48.545Z,23.40
2022-08-25T19:06:15.549Z,23.30
2022-08-25T19:08:42.231Z,23.40
2022-08-25T19:11:09.704Z,23.10
2022-08-25T19:13:37.166Z,23.10
2022-08-25T19:16:17.709Z,23.00
2022-08-25T19:18:47.115Z,22.90
2022-08-25T19:21:16.906Z,22.80
2022-08-25T19:23:50.138Z,22.60
2022-08-25T19:26:17.960Z,22.60
2022-08-25T19:28:49.097Z,22.50
2022-08-25T19:31:18.255Z,22.20
2022-08-25T19:33:46.374Z,22.10
2022-08-25T19:36:13.523Z,22.10
2022-08-25T19:38:40.150Z,21.90
2022-08-25T19:41:10.618Z,22.00
2022-08-25T19:43:41.410Z,21.70
2022-08-25T19:46:25.095Z,21.70
2022-08-25T19:48:51.727Z,21.60
2022-08-25T19:51:21.905Z,21.50
2022-08-25T19:53:53.593Z,21.50
2022-08-25T19:56:21.583Z,21.40
2022-08-25T19:58:48.199Z,21.40
2022-08-25T20:01:18.117Z,21.20
2022-08-25T20:03:45.343Z,21.20
2022-08-25T20:06:12.135Z,21.10
2022-08-25T20:08:42.752Z,21.00
2022-08-25T20:11:09.303Z,20.90
2022-08-25T20:13:35.850Z,20.90
2022-08-25T20:16:03.762Z,20.70
2022-08-25T20:18:32.473Z,20.70
2022-08-25T20:20:59.070Z,20.60
2022-08-25T20:23:44.443Z,20.60
2022-08-25T20:26:11.044Z,20.60
2022-08-25T20:28:37.929Z,20.50
2022-08-25T20:31:08.812Z,20.40
2022-08-25T20:33:36.011Z,20.40
2022-08-25T20:36:04.594Z,20.40
2022-08-25T20:38:31.932Z,20.30
2022-08-25T20:41:01.251Z,20.20
2022-08-25T20:43:27.938Z,20.20
2022-08-25T20:46:01.982Z,20.10
2022-08-25T20:48:28.625Z,20.10
2022-08-25T20:50:57.779Z,20.10
2022-08-25T20:53:25.472Z,20.00
2022-08-25T20:55:52.125Z,19.90
2022-08-25T20:58:18.889Z,19.90
2022-08-25T21:00:46.132Z,19.80
2022-08-25T21:03:12.848Z,19.80
2022-08-25T21:05:40.935Z,19.70
2022-08-25T21:08:08.730Z,19.80
2022-08-25T21:10:35.507Z,19.70
2022-08-25T21:13:02.361Z,19.70
2022-08-25T21:15:29.892Z,19.70
2022-08-25T21:17:56.488Z,19.70
2022-08-25T21:20:24.937Z,19.70
2022-08-25T21:22:52.454Z,19.60
2022-08-25T21:25:20.308Z,19.60
2022-08-25T21:27:48.062Z,19.60
2022-08-25T21:30:15.936Z,19.60
2022-08-25T21:32:53.225Z,19.50
2022-08-25T21:35:22.431Z,19.60
2022-08-25T21:37:53.505Z,19.60
2022-08-25T21:40:20.944Z,19.70
2022-08-25T21:42:48.823Z,19.70
2022-08-25T21:45:15.520Z,19.80
2022-08-25T21:47:42.594Z,20.00
2022-08-25T21:50:11.118Z,20.00
2022-08-25T21:52:37.914Z,20.10
2022-08-25T21:55:06.400Z,20.40
2022-08-25T21:57:36.589Z,20.40
2022-08-25T22:00:07.719Z,20.40
2022-08-25T22:02:35.627Z,20.50
2022-08-25T22:05:02.185Z,20.60
2022-08-25T22:07:29.054Z,20.80
2022-08-25T22:10:01.386Z,20.60
2022-08-25T22:12:27.934Z,20.80
2022-08-25T22:14:54.494Z,21.00
2022-08-25T22:17:24.403Z,20.90
2022-08-25T22:19:53.708Z,21.00
2022-08-25T22:22:20.901Z,21.10
2022-08-25T22:24:47.671Z,21.00
2022-08-25T22:27:15.638Z,21.00
2022-08-25T22:29:44.032Z,20.90
2022-08-25T22:32:10.651Z,20.90
2022-08-25T22:34:40.993Z,20.90
2022-08-25T22:37:10.310Z,20.90
2022-08-25T22:39:37.302Z,20.90
2022-08-25T22:42:07.372Z,20.80
2022-08-25T22:44:33.951Z,20.80
2022-08-25T22:47:00.521Z,20.80
2022-08-25T22:49:28.849Z,20.70
2022-08-25T22:51:55.499Z,20.70
2022-08-25T22:54:23.016Z,20.60
2022-08-25T22:56:50.711Z,20.50
2022-08-25T22:59:17.766Z,20.50
2022-08-25T23:01:45.018Z,20.50
2022-08-25T23:04:11.677Z,20.40
2022-08-25T23:06:39.395Z,20.40
2022-08-25T23:09:07.821Z,20.50
2022-08-25T23:11:35.625Z,20.50
2022-08-25T23:14:06.523Z,20.40
2022-08-25T23:16:33.347Z,20.40
2022-08-25T23:19:00.546Z,20.30
2022-08-25T23:21:46.787Z,20.30
2022-08-25T23:24:14.835Z,20.20
2022-08-25T23:26:57.913Z,20.20
2022-08-25T23:29:25.221Z,20.10
2022-08-25T23:31:51.913Z,20.10
2022-08-25T23:34:20.605Z,20.00
2022-08-25T23:36:47.836Z,20.00
2022-08-25T23:39:14.445Z,20.00
2022-08-25T23:41:41.617Z,20.00
2022-08-25T23:44:11.892Z,19.90
2022-08-25T23:46:44.753Z,19.90
2022-08-25T23:49:11.459Z,19.90
2022-08-25T23:51:38.490Z,19.80
2022-08-25T23:54:09.250Z,19.90
2022-08-25T23:56:44.881Z,19.70
2022-08-25T23:59:24.563Z,19.70
